Currently 87°F in Anza, California, USA
87°F
87°F / 57°F
calm
0.00"
Saturday, September 26, 2020 11:02 AM PDT

Anza, California Weather Summary
Last 36 Hours

Temperature Winds Hourly Humidity Dewpoint
Time Report Norm Report Norm Max Gusts Precip. Rpt. Norm Rpt. Norm Pressure
1Sat 11:02 AM  86.6°F  77°F  calm  7 mph  none  0.00"  11%  35%  25°F  46°F  N/A
2Sat 11:01 AM  86.6°F  77°F  calm  7 mph  none  ----  11%  35%  24°F  46°F  N/A
Sat 11:00 AM  86.5°F  77°F  calm  7 mph  none  0.00"  11%  35%  24°F  46°F  N/A
Sat 10:00 AM  83.1°F  75°F  calm  7 mph  none  0.00"  14%  38%  27°F  47°F  N/A
Sat 09:00 AM  79.2°F  72°F  calm  5 mph  none  0.00"  21%  44%  34°F  48°F  N/A
Sat 08:00 AM  68.2°F  65°F  calm  4 mph  none  0.00"  32%  57%  36°F  48°F  N/A
3Sat 07:17 AM  56.5°F  58°F  calm  3 mph  none  ----  49%  66%  37°F  46°F  N/A
Sat 07:00 AM  59.8°F  56°F  calm  3 mph  none  0.00"  43%  68%  36°F  45°F  N/A
Sat 06:00 AM  58.3°F  56°F  calm  3 mph  none  0.00"  57%  69%  42°F  45°F  N/A
Sat 05:00 AM  59.6°F  56°F  calm  3 mph  none  0.00"  46%  69%  38°F  46°F  N/A
Sat 04:00 AM  60.9°F  56°F  calm  3 mph  none  0.00"  41%  69%  36°F  46°F  N/A
Sat 03:00 AM  59.6°F  56°F  calm  3 mph  none  0.00"  49%  69%  40°F  46°F  N/A
Sat 02:00 AM  59.4°F  57°F  calm  3 mph  none  0.00"  55%  69%  42°F  46°F  N/A
Sat 01:00 AM  61.2°F  58°F  calm  3 mph  none  0.00"  48%  68%  41°F  47°F  N/A
Sat 12:00 AM  58.8°F  58°F  calm  4 mph  none  0.00"  62%  68%  45°F  47°F  N/A
Fri 11:00 PM  61.9°F  59°F  calm  4 mph  none  0.00"  60%  66%  47°F  48°F  N/A
Fri 10:00 PM  62.3°F  61°F  calm  3 mph  none  0.00"  60%  64%  48°F  48°F  N/A
Fri 09:00 PM  64.7°F  63°F  calm  4 mph  none  0.00"  52%  61%  46°F  49°F  N/A
Fri 08:00 PM  66.9°F  65°F  calm  4 mph  none  0.00"  49%  57%  46°F  49°F  N/A
Fri 07:00 PM  71.0°F  70°F  calm  5 mph  none  0.00"  40%  51%  45°F  50°F  N/A
Fri 06:00 PM  79.0°F  75°F  calm  8 mph  none  0.00"  30%  42%  44°F  49°F  N/A
Fri 05:00 PM  83.7°F  78°F  calm  8 mph  none  0.00"  24%  37%  42°F  49°F  N/A
Fri 04:00 PM  86.6°F  79°F  calm  8 mph  none  0.00"  20%  34%  40°F  48°F  N/A
Fri 03:00 PM  87.4°F  80°F  calm  8 mph  none  0.00"  18%  33%  37°F  47°F  N/A
Fri 02:00 PM  87.9°F  80°F  calm  8 mph  none  0.00"  15%  32%  33°F  47°F  N/A
Fri 01:00 PM  87.9°F  80°F  calm  8 mph  none  0.00"  16%  33%  35°F  47°F  N/A
Fri 12:00 PM  85.9°F  79°F  calm  7 mph  none  0.00"  17%  34%  35°F  47°F  N/A
Fri 11:00 AM  84.3°F  77°F  calm  7 mph  none  0.00"  16%  36%  31°F  47°F  N/A
Fri 10:00 AM  80.8°F  75°F  calm  6 mph  none  0.00"  17%  39%  31°F  47°F  N/A
Fri 09:00 AM  76.1°F  72°F  calm  5 mph  none  0.00"  24%  45%  35°F  49°F  N/A
Fri 08:00 AM  69.1°F  65°F  calm  4 mph  none  0.00"  31%  58%  36°F  49°F  N/A
Fri 07:00 AM  55.9°F  56°F  calm  3 mph  none  0.00"  47%  69%  35°F  46°F  N/A
Fri 06:00 AM  58.8°F  56°F  calm  3 mph  none  0.00"  54%  70%  41°F  46°F  N/A
Fri 05:00 AM  59.5°F  56°F  calm  3 mph  none  0.00"  49%  70%  40°F  46°F  N/A
Fri 04:00 AM  61.8°F  56°F  calm  3 mph  none  0.00"  48%  70%  41°F  46°F  N/A
Fri 03:00 AM  62.4°F  57°F  calm  3 mph  none  0.00"  50%  70%  43°F  47°F  N/A
Fri 02:00 AM  61.9°F  57°F  calm  3 mph  none  0.00"  43%  70%  38°F  47°F  N/A
Fri 01:00 AM  59.6°F  58°F  calm  3 mph  none  0.00"  41%  69%  35°F  47°F  N/A
Fri 12:00 AM  57.6°F  59°F  calm  3 mph  none  0.00"  49%  69%  38°F  48°F  N/A

  1. Current weather data. No green row appears if the current weather data is also the high or low for the current day.
  2. High temperature for the current day.
  3. Low temperature for the current day.

The Anza, California weather pages are a service of WeatherCurrents. The Anza Valley is southwestern Riverside County, east of Temecula and Aguanga, south of Mount San Jacinto and west of Mount Santa Rosa.
Copyright ©2020  WeatherCurrents. All rights reserved. - Submit questions and comments - Privacy Policy

This page automatically refreshes every 10 minutes.